Time;durP1;ratioP1;P1;durP2;ratioP2;P2;SDS_P1;SDS_P2;PMS_P1;PMS_P2;Temp;Humidity;BMP_temperature;BMP_pressure;BME280_temperature;BME280_humidity;BME280_pressure;Samples;Min_cycle;Max_cycle;Signal;HPM_P1;HPM_P2
2022/08/09 04:00:09;;;;;;;2.60;2.00;;;18.10;85.60;;;;;;6059700;23;20767;31
2022/08/09 04:02:38;;;;;;;2.10;2.00;;;18.10;86.40;;;;;;4938516;29;20567;-63
2022/08/09 04:05:06;;;;;;;2.30;2.07;;;18.00;87.30;;;;;;4939620;29;20460;-62
2022/08/09 04:07:33;;;;;;;2.43;2.17;;;18.00;86.80;;;;;;4939669;29;20461;-62
2022/08/09 04:09:59;;;;;;;2.87;2.20;;;18.00;86.80;;;;;;4939499;29;20480;-62
2022/08/09 04:12:42;;;;;;;4.47;2.57;;;18.00;87.30;;;;;;4939517;29;20537;-62
2022/08/09 04:15:09;;;;;;;2.43;2.23;;;18.00;88.40;;;;;;4939759;29;20444;-62
2022/08/09 04:17:38;;;;;;;2.70;2.50;;;18.00;89.70;;;;;;4939667;29;20457;-62
2022/08/09 04:20:06;;;;;;;2.53;2.33;;;18.00;90.40;;;;;;4939352;29;20463;-62
2022/08/09 04:22:33;;;;;;;3.90;2.23;;;18.00;90.00;;;;;;4939077;29;20870;-62
2022/08/09 04:25:00;;;;;;;3.50;2.13;;;18.00;90.20;;;;;;4939327;29;21083;-62
2022/08/09 04:27:26;;;;;;;3.50;2.60;;;18.00;90.40;;;;;;4940040;29;20457;-62
2022/08/09 04:29:53;;;;;;;2.77;2.33;;;17.90;90.60;;;;;;4939349;29;20553;-62
2022/08/09 04:32:20;;;;;;;2.17;2.13;;;18.00;91.00;;;;;;4944678;29;20480;-62
2022/08/09 04:34:49;;;;;;;3.93;2.57;;;18.00;91.20;;;;;;4951086;29;20551;-62
2022/08/09 04:37:15;;;;;;;4.57;2.90;;;17.90;91.20;;;;;;4950918;29;20471;-62
2022/08/09 04:39:42;;;;;;;2.87;2.67;;;17.90;91.40;;;;;;4950741;29;20478;-62
2022/08/09 04:42:09;;;;;;;2.30;2.20;;;17.90;91.60;;;;;;4940106;29;20487;-62
2022/08/09 04:44:36;;;;;;;2.53;2.37;;;18.00;91.90;;;;;;4939112;29;20452;-62
2022/08/09 04:47:02;;;;;;;2.97;2.87;;;17.90;92.20;;;;;;4939139;29;20457;-62
2022/08/09 04:49:32;;;;;;;3.40;3.20;;;17.90;92.50;;;;;;4938663;29;20529;-62
2022/08/09 04:52:00;;;;;;;3.70;2.27;;;18.00;92.90;;;;;;4938715;29;20484;-62
2022/08/09 04:54:26;;;;;;;2.70;2.53;;;18.00;93.40;;;;;;4938854;29;20467;-62
2022/08/09 04:56:53;;;;;;;2.80;2.60;;;18.10;94.20;;;;;;4939645;29;20457;-62
2022/08/09 04:59:20;;;;;;;5.33;2.97;;;18.10;93.50;;;;;;4937779;29;20453;-63
2022/08/09 05:01:47;;;;;;;3.33;3.13;;;18.20;93.20;;;;;;4938252;29;20484;-62
2022/08/09 05:04:14;;;;;;;3.23;2.90;;;18.20;92.60;;;;;;4938291;29;20555;-62
2022/08/09 05:06:40;;;;;;;3.17;2.87;;;18.30;93.20;;;;;;4938776;29;20820;-62
2022/08/09 05:09:08;;;;;;;3.53;3.30;;;18.30;93.00;;;;;;4938568;29;20556;-62
2022/08/09 05:11:35;;;;;;;3.30;3.10;;;18.40;93.20;;;;;;4938712;29;20487;-62
2022/08/09 05:14:02;;;;;;;3.33;3.13;;;18.40;92.60;;;;;;4938348;29;20491;-62
2022/08/09 05:16:29;;;;;;;6.13;2.67;;;18.50;92.80;;;;;;4938407;29;20460;-62
2022/08/09 05:18:56;;;;;;;3.40;3.20;;;18.70;99.90;;;;;;4938627;29;20453;-62
2022/08/09 05:21:22;;;;;;;3.10;2.83;;;18.80;99.90;;;;;;4938318;29;20551;-63
2022/08/09 05:23:49;;;;;;;3.47;3.27;;;18.90;96.90;;;;;;4938165;29;20816;-63
2022/08/09 05:26:17;;;;;;;3.37;3.17;;;19.00;99.90;;;;;;4938387;29;20456;-63
2022/08/09 05:28:44;;;;;;;3.10;2.80;;;19.10;99.80;;;;;;4938090;29;20480;-63
2022/08/09 05:31:11;;;;;;;2.97;2.77;;;19.20;97.70;;;;;;4938174;29;20476;-62
2022/08/09 05:33:38;;;;;;;3.33;3.13;;;19.40;99.90;;;;;;4938078;29;20461;-62
2022/08/09 05:36:05;;;;;;;3.27;2.97;;;19.60;98.10;;;;;;4937806;29;21011;-62
2022/08/09 05:38:32;;;;;;;3.40;3.10;;;19.80;97.00;;;;;;4938062;29;20457;-63
2022/08/09 05:40:59;;;;;;;3.47;3.20;;;20.00;97.20;;;;;;4938141;29;20477;-62
2022/08/09 05:43:27;;;;;;;4.60;3.10;;;20.30;94.60;;;;;;4938057;29;20460;-63
2022/08/09 05:45:54;;;;;;;3.40;3.20;;;20.50;92.60;;;;;;4937466;29;20814;-63
2022/08/09 05:48:20;;;;;;;3.57;3.27;;;20.80;91.00;;;;;;4938025;29;20457;-63
2022/08/09 05:50:47;;;;;;;6.17;3.83;;;21.10;88.90;;;;;;4937661;29;20477;-63
2022/08/09 05:53:14;;;;;;;3.90;3.50;;;21.30;86.20;;;;;;4937934;29;20939;-64
2022/08/09 05:55:41;;;;;;;4.33;3.20;;;21.40;85.50;;;;;;4937869;29;20943;-62
2022/08/09 05:58:08;;;;;;;3.43;3.23;;;21.40;85.00;;;;;;4938084;29;20459;-62
2022/08/09 06:00:36;;;;;;;3.80;3.40;;;21.40;85.20;;;;;;4938413;29;20472;-62
2022/08/09 06:03:04;;;;;;;2.70;2.60;;;21.30;85.10;;;;;;4939004;29;20436;-62
2022/08/09 06:05:33;;;;;;;2.90;2.80;;;21.10;85.80;;;;;;4937602;29;20480;-62
2022/08/09 06:08:00;;;;;;;3.17;2.97;;;21.10;86.00;;;;;;4937441;29;20504;-62
2022/08/09 06:10:36;;;;;;;3.30;3.10;;;21.10;85.50;;;;;;4937154;29;20493;-63
2022/08/09 06:13:03;;;;;;;2.60;2.47;;;21.10;85.10;;;;;;4949311;29;20881;-63
2022/08/09 06:15:30;;;;;;;3.77;3.40;;;21.20;84.60;;;;;;4949220;29;20460;-62
2022/08/09 06:17:58;;;;;;;4.00;3.40;;;21.30;84.50;;;;;;4941137;29;20456;-63
2022/08/09 06:20:25;;;;;;;3.23;2.93;;;21.50;84.30;;;;;;4937288;29;20459;-62
2022/08/09 06:22:52;;;;;;;5.33;3.50;;;21.60;83.00;;;;;;4937839;29;20460;-63
2022/08/09 06:25:18;;;;;;;3.07;2.97;;;21.70;83.00;;;;;;4938149;29;20515;-63
2022/08/09 06:27:45;;;;;;;3.10;2.90;;;21.90;81.00;;;;;;4937220;29;20483;-63
2022/08/09 06:30:12;;;;;;;2.83;2.50;;;22.30;80.80;;;;;;4937046;29;20488;-63
2022/08/09 06:32:39;;;;;;;2.67;2.50;;;22.80;79.80;;;;;;4937063;29;20487;-63
2022/08/09 06:35:08;;;;;;;2.97;2.80;;;23.30;78.80;;;;;;4936852;29;20827;-63
2022/08/09 06:37:35;;;;;;;2.87;2.70;;;23.90;75.20;;;;;;4937025;29;20510;-63
2022/08/09 06:40:02;;;;;;;3.07;2.73;;;24.50;72.60;;;;;;4937105;29;20832;-62
2022/08/09 06:42:29;;;;;;;2.90;2.67;;;25.10;69.20;;;;;;4937045;29;20876;-63
2022/08/09 06:44:56;;;;;;;3.40;2.57;;;25.40;68.60;;;;;;4936619;29;20793;-63
2022/08/09 06:47:23;;;;;;;2.93;2.73;;;25.70;66.40;;;;;;4936886;29;20456;-62
2022/08/09 06:49:50;;;;;;;3.30;2.90;;;26.00;66.80;;;;;;4936404;29;21006;-62
2022/08/09 06:52:18;;;;;;;2.77;2.63;;;26.10;66.90;;;;;;4936883;29;20480;-62
2022/08/09 06:54:45;;;;;;;3.30;3.10;;;26.50;65.70;;;;;;4937073;29;20457;-62
2022/08/09 06:57:12;;;;;;;2.80;2.60;;;27.20;63.70;;;;;;4937901;29;20487;-62
2022/08/09 06:59:39;;;;;;;2.20;2.10;;;27.80;60.50;;;;;;4937234;29;20452;-62
2022/08/09 07:02:06;;;;;;;3.40;2.97;;;28.20;59.00;;;;;;4937168;29;20492;-63
2022/08/09 07:04:33;;;;;;;2.97;2.60;;;28.50;58.50;;;;;;4937528;29;20543;-62
2022/08/09 07:06:59;;;;;;;3.40;2.70;;;28.50;57.80;;;;;;4936909;29;20964;-63
2022/08/09 07:09:28;;;;;;;3.30;2.53;;;28.60;57.40;;;;;;4936952;29;20487;-63
2022/08/09 07:11:55;;;;;;;5.20;2.23;;;28.70;57.90;;;;;;4936850;29;20484;-63
2022/08/09 07:14:22;;;;;;;7.53;2.37;;;28.90;57.10;;;;;;4936648;29;20952;-63
2022/08/09 07:16:48;;;;;;;3.60;2.53;;;29.30;56.90;;;;;;4936660;29;20464;-63
2022/08/09 07:19:16;;;;;;;5.27;2.87;;;29.80;57.20;;;;;;4936589;29;20452;-63
2022/08/09 07:21:44;;;;;;;4.80;2.70;;;30.00;55.20;;;;;;4936582;29;20476;-63
2022/08/09 07:24:11;;;;;;;4.20;3.27;;;30.40;53.70;;;;;;4939860;29;20460;-63
2022/08/09 07:26:39;;;;;;;3.87;2.57;;;30.70;54.20;;;;;;4940874;29;20468;-63
2022/08/09 07:29:06;;;;;;;3.47;2.10;;;30.80;53.80;;;;;;4940109;29;20844;-63
2022/08/09 07:31:32;;;;;;;2.57;2.47;;;31.30;52.10;;;;;;4940339;29;20484;-63
2022/08/09 07:33:59;;;;;;;5.07;2.40;;;31.60;50.60;;;;;;4940438;29;20467;-63
2022/08/09 07:36:29;;;;;;;3.00;2.60;;;31.90;50.90;;;;;;4940313;29;20460;-64
2022/08/09 07:38:58;;;;;;;3.53;2.40;;;32.00;50.90;;;;;;4940174;29;20853;-63
2022/08/09 07:41:25;;;;;;;13.90;2.87;;;32.20;49.90;;;;;;4940049;29;20476;-63
2022/08/09 07:43:53;;;;;;;7.57;2.67;;;32.40;49.10;;;;;;4940215;29;20456;-63
2022/08/09 07:46:19;;;;;;;4.07;2.73;;;32.60;48.60;;;;;;4940030;29;20460;-63
2022/08/09 07:48:47;;;;;;;7.33;2.77;;;32.90;48.90;;;;;;4939798;29;20796;-63
2022/08/09 07:51:14;;;;;;;10.57;2.63;;;33.20;48.30;;;;;;4939723;29;20483;-63
2022/08/09 07:53:41;;;;;;;5.47;2.60;;;33.30;48.30;;;;;;4939852;29;20460;-63
2022/08/09 07:56:07;;;;;;;5.87;2.40;;;33.30;48.10;;;;;;4939897;29;20463;-63
2022/08/09 07:58:35;;;;;;;2.70;2.47;;;33.50;48.20;;;;;;4940812;29;20459;-64
2022/08/09 08:01:03;;;;;;;5.43;2.90;;;33.90;48.00;;;;;;4941983;29;20499;-63
2022/08/09 08:03:30;;;;;;;3.43;3.23;;;34.00;47.60;;;;;;4939858;29;20466;-63
2022/08/09 08:05:56;;;;;;;2.53;2.33;;;33.90;47.00;;;;;;4940530;29;20463;-63
2022/08/09 08:08:24;;;;;;;6.57;2.40;;;33.90;46.50;;;;;;4940268;29;20456;-63
2022/08/09 08:10:51;;;;;;;3.60;2.83;;;33.50;46.40;;;;;;4939697;29;20535;-64
2022/08/09 08:13:17;;;;;;;2.90;2.70;;;33.80;47.30;;;;;;4939988;29;20452;-63
2022/08/09 08:15:45;;;;;;;2.50;2.30;;;34.00;46.30;;;;;;4940089;29;20801;-64
2022/08/09 08:18:13;;;;;;;3.10;2.80;;;34.20;47.10;;;;;;4940924;29;20494;-63
2022/08/09 08:20:40;;;;;;;3.43;2.33;;;34.20;46.40;;;;;;4940858;29;20980;-65
2022/08/09 08:23:07;;;;;;;4.50;2.73;;;34.50;45.90;;;;;;4941456;29;20483;-63
2022/08/09 08:25:35;;;;;;;2.97;2.70;;;34.90;44.50;;;;;;4940991;29;20492;-64
2022/08/09 08:28:01;;;;;;;5.90;1.90;;;35.10;44.70;;;;;;4940143;29;20900;-64
2022/08/09 08:30:28;;;;;;;4.33;2.27;;;35.50;44.30;;;;;;4940127;29;20502;-67
2022/08/09 08:32:55;;;;;;;3.30;2.50;;;35.80;44.60;;;;;;4939082;29;20510;-64
2022/08/09 08:35:23;;;;;;;3.67;2.40;;;35.90;44.30;;;;;;4939365;29;20456;-65
2022/08/09 08:37:50;;;;;;;3.50;2.50;;;35.60;43.20;;;;;;4939175;29;20468;-64
2022/08/09 08:40:18;;;;;;;10.30;2.70;;;35.50;43.50;;;;;;4939100;29;20456;-63
2022/08/09 08:42:44;;;;;;;2.43;2.33;;;35.50;44.60;;;;;;4939256;29;20452;-64
2022/08/09 08:45:13;;;;;;;3.30;2.50;;;35.10;43.10;;;;;;4939088;29;20460;-64
2022/08/09 08:47:40;;;;;;;5.57;2.30;;;35.20;44.20;;;;;;4938682;29;20966;-65
2022/08/09 08:50:08;;;;;;;4.23;2.20;;;35.60;44.50;;;;;;4938828;29;20494;-65
2022/08/09 08:52:36;;;;;;;2.50;2.40;;;35.50;43.20;;;;;;4938774;29;20481;-64
2022/08/09 08:55:04;;;;;;;6.70;2.27;;;35.60;44.20;;;;;;4938824;29;20455;-64
2022/08/09 08:57:30;;;;;;;2.17;2.07;;;35.80;43.90;;;;;;4938834;29;20506;-64
2022/08/09 08:59:57;;;;;;;2.03;1.90;;;36.30;43.30;;;;;;4938751;29;20468;-65
2022/08/09 09:02:27;;;;;;;3.40;2.20;;;36.70;42.60;;;;;;4938014;29;20495;-65
2022/08/09 09:04:56;;;;;;;5.60;2.10;;;36.40;42.50;;;;;;4938539;29;20456;-64
2022/08/09 09:07:24;;;;;;;2.57;2.03;;;36.40;41.90;;;;;;4938506;29;20467;-64
2022/08/09 09:09:54;;;;;;;2.00;1.90;;;36.90;41.10;;;;;;4938244;29;20475;-64
2022/08/09 09:12:22;;;;;;;2.40;1.97;;;37.40;41.60;;;;;;4937714;29;20476;-64
2022/08/09 09:14:50;;;;;;;2.53;2.30;;;37.60;40.00;;;;;;4938201;29;20452;-65
2022/08/09 09:17:17;;;;;;;2.40;2.03;;;37.40;39.40;;;;;;4938081;29;20463;-65
2022/08/09 09:19:44;;;;;;;2.10;1.80;;;37.60;41.10;;;;;;4937992;29;20944;-66
2022/08/09 09:22:13;;;;;;;2.83;2.00;;;37.60;40.40;;;;;;4938401;29;20480;-65
2022/08/09 09:24:42;;;;;;;2.40;2.20;;;38.00;40.90;;;;;;4938581;29;20455;-64
2022/08/09 09:27:12;;;;;;;2.27;2.17;;;38.50;39.70;;;;;;4943360;29;20455;-64
2022/08/09 09:29:41;;;;;;;3.10;2.00;;;38.60;38.00;;;;;;4950948;29;20503;-64
2022/08/09 09:32:08;;;;;;;2.13;1.93;;;38.70;37.30;;;;;;4951698;29;20490;-65
2022/08/09 09:34:36;;;;;;;1.70;1.60;;;38.80;37.70;;;;;;4947651;29;20511;-64
2022/08/09 09:37:06;;;;;;;2.00;1.60;;;39.20;38.30;;;;;;4944523;29;20511;-63
2022/08/09 09:39:33;;;;;;;1.87;1.70;;;39.60;37.20;;;;;;4944525;29;20448;-65
2022/08/09 09:42:04;;;;;;;1.87;1.87;;;39.20;36.80;;;;;;4937909;29;20480;-65
2022/08/09 09:44:34;;;;;;;2.50;1.90;;;38.80;36.90;;;;;;4938541;29;20457;-65
2022/08/09 09:47:08;;;;;;;2.10;1.90;;;38.90;38.00;;;;;;4937681;29;20466;-65
2022/08/09 09:49:37;;;;;;;2.20;1.87;;;38.90;37.20;;;;;;4937812;29;20459;-65
2022/08/09 09:52:05;;;;;;;1.87;1.77;;;38.90;36.30;;;;;;4938774;29;20472;-64
2022/08/09 09:54:38;;;;;;;2.23;2.00;;;39.00;37.30;;;;;;4937634;29;20482;-65
2022/08/09 09:57:15;;;;;;;2.87;1.93;;;39.50;35.40;;;;;;4937697;29;20460;-65
2022/08/09 09:59:45;;;;;;;2.27;1.93;;;39.90;35.70;;;;;;4938116;29;20817;-64
2022/08/09 10:02:12;;;;;;;2.00;1.90;;;39.60;34.30;;;;;;4937266;29;20232;-63
2022/08/09 10:04:40;;;;;;;2.90;1.97;;;39.40;34.50;;;;;;4937290;29;20459;-64
2022/08/09 10:07:21;;;;;;;2.00;1.90;;;38.90;34.20;;;;;;4937454;29;20460;-63
2022/08/09 10:09:49;;;;;;;3.30;2.03;;;38.20;35.40;;;;;;4937223;29;20467;-64
2022/08/09 10:12:25;;;;;;;1.70;1.70;;;38.10;36.20;;;;;;4937128;29;20483;-63
2022/08/09 10:15:03;;;;;;;2.10;1.90;;;38.00;35.90;;;;;;4937107;29;20436;-64
2022/08/09 10:17:33;;;;;;;1.70;1.60;;;37.90;36.40;;;;;;4938160;29;20812;-64
2022/08/09 10:20:00;;;;;;;2.47;2.27;;;37.60;36.90;;;;;;4938429;29;20951;-63
2022/08/09 10:22:35;;;;;;;2.40;1.90;;;37.50;36.40;;;;;;4937647;29;20502;-63
2022/08/09 10:25:05;;;;;;;1.87;1.60;;;37.70;36.00;;;;;;4936761;29;20459;-64
2022/08/09 10:27:32;;;;;;;3.33;1.63;;;38.10;36.70;;;;;;4936918;29;20552;-64
2022/08/09 10:30:02;;;;;;;2.87;1.87;;;38.30;36.50;;;;;;4936993;29;20479;-63
2022/08/09 10:32:29;;;;;;;2.97;1.90;;;37.90;36.20;;;;;;4938000;29;20527;-64
2022/08/09 10:34:56;;;;;;;1.70;1.60;;;38.00;35.90;;;;;;4936569;29;20819;-64
2022/08/09 10:37:24;;;;;;;1.63;1.63;;;38.30;35.90;;;;;;4936984;29;20459;-64
2022/08/09 10:39:51;;;;;;;5.10;1.40;;;38.50;35.30;;;;;;4936872;29;20483;-63
2022/08/09 10:42:19;;;;;;;2.27;1.87;;;38.70;34.10;;;;;;4937313;29;20475;-62
2022/08/09 10:44:50;;;;;;;1.90;1.90;;;39.00;34.60;;;;;;4937615;29;20467;-64
2022/08/09 10:47:37;;;;;;;2.03;1.83;;;39.30;34.50;;;;;;4936854;29;20837;-61
2022/08/09 10:50:11;;;;;;;2.50;2.20;;;39.10;33.50;;;;;;4936936;29;20475;-62
2022/08/09 10:52:49;;;;;;;1.70;1.60;;;39.00;34.50;;;;;;4936945;29;20486;-62
2022/08/09 10:55:21;;;;;;;2.53;1.90;;;39.00;33.90;;;;;;4937031;29;20443;-62
2022/08/09 10:57:48;;;;;;;1.83;1.63;;;39.20;33.80;;;;;;4938120;29;20821;-62
2022/08/09 11:00:36;;;;;;;1.93;1.93;;;39.10;33.70;;;;;;4941451;29;20822;-62
2022/08/09 11:03:20;;;;;;;2.20;1.83;;;38.80;34.10;;;;;;4941675;29;20459;-62
2022/08/09 11:06:17;;;;;;;2.00;1.90;;;38.70;34.50;;;;;;4941687;29;20926;-62
2022/08/09 11:08:46;;;;;;;1.90;1.50;;;38.80;34.40;;;;;;4949430;29;20436;-63
2022/08/09 11:11:13;;;;;;;2.13;1.93;;;39.00;33.80;;;;;;4954875;29;20991;-63
2022/08/09 11:13:40;;;;;;;3.97;1.90;;;39.00;33.50;;;;;;4960628;29;20463;-62
2022/08/09 11:16:31;;;;;;;1.90;1.80;;;38.50;34.10;;;;;;4961184;29;20479;-62
2022/08/09 11:18:59;;;;;;;2.13;1.90;;;38.30;33.20;;;;;;4951687;29;20440;-62
2022/08/09 11:21:50;;;;;;;1.93;1.83;;;38.20;34.50;;;;;;4959554;29;20460;-62
2022/08/09 11:24:17;;;;;;;4.00;2.10;;;37.90;35.00;;;;;;4949612;29;20463;-63
2022/08/09 11:26:44;;;;;;;1.63;1.53;;;37.70;35.40;;;;;;4950043;29;20460;-62
2022/08/09 11:29:44;;;;;;;2.60;1.80;;;37.50;34.10;;;;;;4951866;29;20491;-62
2022/08/09 11:32:41;;;;;;;1.90;1.70;;;37.30;34.80;;;;;;4950805;29;20488;-62
2022/08/09 11:35:14;;;;;;;1.90;1.80;;;36.80;34.80;;;;;;4949091;29;20440;-62
2022/08/09 11:37:42;;;;;;;2.13;2.03;;;36.60;36.70;;;;;;4945304;29;20471;-62
2022/08/09 11:40:11;;;;;;;2.40;2.20;;;36.60;35.70;;;;;;4939802;29;20459;-61
2022/08/09 11:42:49;;;;;;;1.60;1.50;;;36.30;36.70;;;;;;4939894;29;20475;-61
2022/08/09 11:45:21;;;;;;;2.83;2.37;;;36.20;36.90;;;;;;4939554;29;20868;-61
2022/08/09 11:47:50;;;;;;;2.83;1.47;;;36.00;36.40;;;;;;4939408;29;20954;-62
2022/08/09 11:50:18;;;;;;;3.80;2.10;;;35.80;36.10;;;;;;4939523;29;20479;-61
2022/08/09 11:53:17;;;;;;;2.37;2.10;;;35.50;36.70;;;;;;4939225;29;20923;-61
2022/08/09 11:55:44;;;;;;;2.93;1.73;;;35.10;37.20;;;;;;4939237;29;20538;-61
2022/08/09 11:58:45;;;;;;;2.27;1.83;;;35.10;37.80;;;;;;4939406;29;20495;-62
2022/08/09 12:01:13;;;;;;;2.30;2.20;;;34.90;36.70;;;;;;4939151;29;20518;-62
2022/08/09 12:03:40;;;;;;;1.93;1.70;;;34.80;36.20;;;;;;4939416;29;20460;-62
2022/08/09 12:06:18;;;;;;;3.53;2.00;;;34.50;36.20;;;;;;4939935;29;20459;-61
2022/08/09 12:08:47;;;;;;;2.07;1.97;;;33.90;36.80;;;;;;4938998;29;20495;-62
2022/08/09 12:11:15;;;;;;;1.90;1.70;;;33.90;37.60;;;;;;4939389;29;20495;-61
2022/08/09 12:13:45;;;;;;;2.43;2.23;;;33.90;37.20;;;;;;4939525;29;20456;-61
2022/08/09 12:16:14;;;;;;;3.20;2.10;;;33.60;37.50;;;;;;4947393;29;20503;-61
2022/08/09 12:18:44;;;;;;;2.20;2.00;;;33.70;37.80;;;;;;4947136;29;20460;-62
2022/08/09 12:21:12;;;;;;;1.83;1.70;;;33.70;38.20;;;;;;4944423;29;20863;-62
2022/08/09 12:23:44;;;;;;;2.00;1.90;;;33.60;38.20;;;;;;4947089;29;20864;-61
2022/08/09 12:26:12;;;;;;;4.20;1.70;;;33.60;38.80;;;;;;4947058;29;20441;-61
2022/08/09 12:28:40;;;;;;;2.80;1.83;;;33.60;37.60;;;;;;4945900;29;20463;-62
2022/08/09 12:31:18;;;;;;;2.30;1.80;;;33.40;36.90;;;;;;4946870;29;20539;-61
2022/08/09 12:33:45;;;;;;;2.37;2.17;;;33.40;37.90;;;;;;4945264;29;20492;-62
2022/08/09 12:36:12;;;;;;;3.83;1.90;;;33.50;37.60;;;;;;4946029;29;20460;-63
2022/08/09 12:38:39;;;;;;;2.10;1.90;;;33.60;37.30;;;;;;4946344;29;20456;-63
2022/08/09 12:41:07;;;;;;;5.13;1.83;;;33.60;36.60;;;;;;4940418;29;20469;-63
2022/08/09 12:43:35;;;;;;;1.70;1.60;;;33.60;37.00;;;;;;4939185;29;20515;-63
2022/08/09 12:46:02;;;;;;;2.10;2.00;;;33.60;36.40;;;;;;4938999;29;20795;-63
2022/08/09 12:48:30;;;;;;;2.20;1.90;;;33.40;36.40;;;;;;4943198;29;20456;-63
2022/08/09 12:50:57;;;;;;;4.47;4.07;;;33.40;37.30;;;;;;4949158;29;20484;-64
2022/08/09 12:53:26;;;;;;;1.90;1.80;;;33.50;37.30;;;;;;4949027;29;20452;-63
2022/08/09 12:56:04;;;;;;;2.90;1.70;;;33.50;37.10;;;;;;4946075;29;20457;-63
2022/08/09 12:58:33;;;;;;;4.57;1.57;;;33.70;37.70;;;;;;4939481;29;20441;-63
2022/08/09 13:01:02;;;;;;;2.03;1.63;;;33.80;37.10;;;;;;4938281;29;20488;-64
2022/08/09 13:03:30;;;;;;;4.60;1.90;;;33.90;37.20;;;;;;4938785;29;20460;-63
2022/08/09 13:05:57;;;;;;;1.67;1.67;;;33.80;36.70;;;;;;4939019;29;20467;-63
2022/08/09 13:08:24;;;;;;;1.87;1.77;;;33.70;36.70;;;;;;4938349;29;20460;-64
2022/08/09 13:10:53;;;;;;;1.70;1.60;;;33.80;36.60;;;;;;4938316;29;20480;-63
2022/08/09 13:13:31;;;;;;;3.83;1.70;;;33.90;36.20;;;;;;4938298;29;20460;-64
2022/08/09 13:16:01;;;;;;;2.03;1.80;;;33.90;36.40;;;;;;4938050;29;20479;-63
2022/08/09 13:18:40;;;;;;;1.70;1.60;;;33.90;36.70;;;;;;4937911;29;20445;-64
2022/08/09 13:21:18;;;;;;;3.47;1.80;;;33.90;35.60;;;;;;4937302;29;20556;-64
2022/08/09 13:23:45;;;;;;;1.70;1.60;;;33.80;35.80;;;;;;4938242;29;20446;-64
2022/08/09 13:26:11;;;;;;;1.60;1.60;;;33.90;35.80;;;;;;4938331;29;20492;-63
2022/08/09 13:28:38;;;;;;;1.67;1.57;;;34.00;35.50;;;;;;4938036;29;20462;-63
2022/08/09 13:31:08;;;;;;;2.50;1.40;;;34.00;35.80;;;;;;4937879;29;20495;-63
2022/08/09 13:33:35;;;;;;;1.40;1.40;;;33.90;35.50;;;;;;4937738;29;20783;-64
2022/08/09 13:36:02;;;;;;;1.50;1.40;;;33.90;35.70;;;;;;4937916;29;20513;-63
2022/08/09 13:38:29;;;;;;;1.40;1.40;;;33.90;35.10;;;;;;4937972;29;20463;-63
2022/08/09 13:40:57;;;;;;;1.97;1.83;;;33.90;36.50;;;;;;4937563;29;20472;-63
2022/08/09 13:43:24;;;;;;;1.90;1.60;;;33.90;35.40;;;;;;4937461;29;20456;-64
2022/08/09 13:45:51;;;;;;;1.67;1.57;;;33.90;36.20;;;;;;4937718;29;20456;-63
2022/08/09 13:48:19;;;;;;;1.90;1.80;;;33.90;35.50;;;;;;4937593;29;20460;-63
2022/08/09 13:50:45;;;;;;;2.00;1.90;;;33.80;35.90;;;;;;4937479;29;20488;-63
2022/08/09 13:53:12;;;;;;;1.70;1.60;;;33.80;36.40;;;;;;4937614;29;20493;-61
2022/08/09 13:55:39;;;;;;;1.57;1.57;;;33.90;36.60;;;;;;4937406;29;20464;-60
2022/08/09 13:58:07;;;;;;;3.40;1.80;;;33.90;36.30;;;;;;4937604;29;20467;-62
2022/08/09 14:00:37;;;;;;;1.60;1.50;;;34.00;35.80;;;;;;4937267;29;20468;-60
2022/08/09 14:03:04;;;;;;;2.00;1.80;;;33.90;36.40;;;;;;4937164;29;20904;-61
2022/08/09 14:05:32;;;;;;;1.90;1.80;;;33.90;35.90;;;;;;4937396;29;20463;-61
2022/08/09 14:08:02;;;;;;;4.90;1.90;;;34.00;36.30;;;;;;4937467;29;20456;-61
2022/08/09 14:10:30;;;;;;;2.20;1.50;;;33.70;35.70;;;;;;4937232;29;20512;-62
2022/08/09 14:12:57;;;;;;;1.70;1.43;;;33.80;35.50;;;;;;4937009;29;21090;-62
2022/08/09 14:15:24;;;;;;;1.80;1.50;;;33.80;36.40;;;;;;4937357;29;20866;-62
2022/08/09 14:17:51;;;;;;;1.60;1.60;;;33.80;35.50;;;;;;4937015;29;20978;-62
2022/08/09 14:20:17;;;;;;;1.40;1.30;;;33.70;34.60;;;;;;4937159;29;20464;-63
2022/08/09 14:22:45;;;;;;;1.30;1.30;;;33.60;35.30;;;;;;4937037;29;20459;-62
2022/08/09 14:25:12;;;;;;;1.33;1.20;;;33.50;35.90;;;;;;4937159;29;20460;-62
2022/08/09 14:27:39;;;;;;;3.50;1.50;;;33.50;35.90;;;;;;4936932;29;21020;-63
2022/08/09 14:30:06;;;;;;;1.63;1.43;;;33.60;35.70;;;;;;4936872;29;20912;-63
2022/08/09 14:32:33;;;;;;;1.60;1.50;;;33.50;36.20;;;;;;4937593;29;20491;-63
2022/08/09 14:34:59;;;;;;;1.53;1.53;;;33.50;35.70;;;;;;4936985;29;20456;-64
2022/08/09 14:37:26;;;;;;;2.50;1.70;;;33.50;35.10;;;;;;4937051;29;20460;-64
2022/08/09 14:39:54;;;;;;;5.43;1.53;;;33.50;36.30;;;;;;4937010;29;20444;-63
2022/08/09 14:42:21;;;;;;;3.13;1.90;;;33.50;35.70;;;;;;4936590;29;20478;-64
2022/08/09 14:44:49;;;;;;;1.90;1.40;;;33.40;36.00;;;;;;4936684;29;20468;-64
2022/08/09 14:47:16;;;;;;;2.70;2.00;;;33.30;35.80;;;;;;4936783;29;20974;-65
2022/08/09 14:49:42;;;;;;;2.63;1.70;;;33.00;35.90;;;;;;4936977;29;20460;-65
2022/08/09 14:52:09;;;;;;;1.53;1.53;;;32.90;35.90;;;;;;4936591;29;20484;-65
2022/08/09 14:54:36;;;;;;;2.70;1.50;;;33.00;37.50;;;;;;4936768;29;20464;-65
2022/08/09 14:57:04;;;;;;;2.20;1.57;;;33.20;37.50;;;;;;4936720;29;20457;-64
2022/08/09 14:59:31;;;;;;;4.40;1.60;;;33.30;36.90;;;;;;4937162;29;20517;-65
2022/08/09 15:01:57;;;;;;;1.40;1.40;;;33.30;36.70;;;;;;4936375;29;20492;-65
2022/08/09 15:04:24;;;;;;;1.73;1.63;;;33.40;34.90;;;;;;4936224;29;20975;-64
2022/08/09 15:06:51;;;;;;;1.83;1.73;;;33.30;35.50;;;;;;4936893;29;20467;-65
2022/08/09 15:09:18;;;;;;;1.40;1.40;;;33.40;35.70;;;;;;4936664;29;20464;-64
2022/08/09 15:11:45;;;;;;;2.67;2.00;;;33.40;35.70;;;;;;4936594;29;20484;-66
2022/08/09 15:14:13;;;;;;;4.40;1.60;;;33.20;35.40;;;;;;4936921;29;20456;-64
2022/08/09 15:16:40;;;;;;;1.43;1.10;;;33.00;35.60;;;;;;4936593;29;20947;-65
2022/08/09 15:19:06;;;;;;;2.40;1.30;;;33.00;34.90;;;;;;4936927;29;20456;-64
2022/08/09 15:21:33;;;;;;;1.43;1.33;;;33.00;35.80;;;;;;4936433;29;20487;-64
2022/08/09 15:24:00;;;;;;;7.13;1.80;;;33.10;35.80;;;;;;4936812;29;20452;-65
2022/08/09 15:26:26;;;;;;;2.00;1.50;;;33.10;36.40;;;;;;4936735;29;20508;-65
2022/08/09 15:28:53;;;;;;;2.57;1.40;;;33.20;36.40;;;;;;4936407;29;20463;-66
2022/08/09 15:31:21;;;;;;;5.17;4.70;;;33.00;35.50;;;;;;4936058;29;20472;-67
2022/08/09 15:33:48;;;;;;;15.77;14.47;;;32.90;35.70;;;;;;4936275;29;20471;-66
2022/08/09 15:36:15;;;;;;;10.00;9.10;;;32.90;36.20;;;;;;4936508;29;20460;-66
2022/08/09 15:38:41;;;;;;;5.93;5.43;;;32.70;36.90;;;;;;4936564;29;20467;-65
2022/08/09 15:41:08;;;;;;;3.03;2.83;;;32.70;36.60;;;;;;4936537;29;20503;-64
2022/08/09 15:43:37;;;;;;;10.60;9.80;;;32.60;37.00;;;;;;4951036;29;20464;-64
2022/08/09 15:46:04;;;;;;;4.77;4.00;;;32.50;36.80;;;;;;4955337;29;20435;-64
2022/08/09 15:48:32;;;;;;;26.03;24.00;;;32.50;36.60;;;;;;4956417;29;20456;-64
2022/08/09 15:51:00;;;;;;;8.67;7.87;;;32.50;37.20;;;;;;4948984;29;20472;-66
2022/08/09 15:53:27;;;;;;;17.40;15.90;;;32.40;37.30;;;;;;4940340;29;20491;-66
2022/08/09 15:55:53;;;;;;;15.90;14.30;;;32.60;37.40;;;;;;4940040;29;20568;-66
2022/08/09 15:58:20;;;;;;;11.37;10.47;;;32.50;37.30;;;;;;4940025;29;20507;-65
2022/08/09 16:00:47;;;;;;;7.28;6.57;;;32.30;37.30;;;;;;4939868;29;20472;-63
2022/08/09 16:03:14;;;;;;;5.37;4.97;;;32.10;37.50;;;;;;4940058;29;20264;-63
2022/08/09 16:05:42;;;;;;;7.10;6.60;;;32.10;37.60;;;;;;4939937;29;20503;-64
2022/08/09 16:08:09;;;;;;;3.70;3.40;;;32.10;37.40;;;;;;4944134;29;20460;-64
2022/08/09 16:10:37;;;;;;;2.30;2.20;;;32.00;36.80;;;;;;4950877;29;20452;-63
2022/08/09 16:13:03;;;;;;;2.97;2.67;;;31.90;37.40;;;;;;4948984;29;20480;-64
2022/08/09 16:15:30;;;;;;;3.73;2.57;;;32.00;37.00;;;;;;4939583;29;20785;-64
2022/08/09 16:17:57;;;;;;;2.80;2.40;;;31.90;37.20;;;;;;4939623;29;20467;-63
2022/08/09 16:20:24;;;;;;;3.67;2.93;;;31.60;37.30;;;;;;4939474;29;20456;-64
2022/08/09 16:22:52;;;;;;;8.77;8.07;;;31.50;37.50;;;;;;4939254;29;20452;-63
2022/08/09 16:25:19;;;;;;;3.77;3.57;;;31.30;38.00;;;;;;4938948;29;20456;-64
2022/08/09 16:27:46;;;;;;;3.53;3.23;;;31.30;38.20;;;;;;4939123;29;20865;-63
2022/08/09 16:30:13;;;;;;;2.50;2.30;;;31.20;38.20;;;;;;4939017;29;20464;-63
2022/08/09 16:35:24;;;;;;;4.50;4.13;;;31.00;38.70;;;;;;4938881;29;20424;-63
2022/08/09 16:37:52;;;;;;;3.07;2.53;;;31.00;38.50;;;;;;4939437;29;20822;-64
2022/08/09 16:40:19;;;;;;;3.77;3.33;;;30.90;38.20;;;;;;4938829;29;20467;-63
2022/08/09 16:42:46;;;;;;;5.33;4.23;;;30.90;38.40;;;;;;4938511;29;20456;-66
2022/08/09 16:45:16;;;;;;;3.97;2.73;;;30.70;38.90;;;;;;4938901;29;20457;-65
2022/08/09 16:47:42;;;;;;;4.47;4.10;;;30.60;38.90;;;;;;4938820;29;20456;-65
2022/08/09 16:50:10;;;;;;;3.20;3.00;;;30.60;39.00;;;;;;4938698;29;20456;-67
2022/08/09 16:52:36;;;;;;;3.23;1.73;;;30.50;38.60;;;;;;4938693;29;20843;-66
2022/08/09 16:55:06;;;;;;;4.90;4.40;;;30.50;38.70;;;;;;4937959;29;20460;-65